createdAt,value
2017-12-08T00:01:21.322Z,25.83
2017-12-08T00:03:48.831Z,19.00
2017-12-08T00:06:16.406Z,20.23
2017-12-08T00:08:43.908Z,24.73
2017-12-08T00:11:12.226Z,29.67
2017-12-08T00:13:39.721Z,20.67
2017-12-08T00:16:07.265Z,21.90
2017-12-08T00:18:34.765Z,33.57
2017-12-08T00:21:02.267Z,27.93
2017-12-08T00:23:29.807Z,17.90
2017-12-08T00:25:57.316Z,24.97
2017-12-08T00:28:24.847Z,31.50
2017-12-08T00:30:52.345Z,28.10
2017-12-08T00:33:20.697Z,18.77
2017-12-08T00:35:48.208Z,26.73
2017-12-08T00:38:15.766Z,25.17
2017-12-08T00:40:43.261Z,25.73
2017-12-08T00:43:10.807Z,24.20
2017-12-08T00:45:38.301Z,24.60
2017-12-08T00:48:05.847Z,23.63
2017-12-08T00:50:33.354Z,22.07
2017-12-08T00:53:01.664Z,31.90
2017-12-08T00:55:29.241Z,27.03
2017-12-08T00:57:57.220Z,27.63
2017-12-08T01:00:24.722Z,30.50
2017-12-08T01:02:52.259Z,28.30
2017-12-08T01:05:19.769Z,39.07
2017-12-08T01:07:47.283Z,30.07
2017-12-08T01:10:15.585Z,32.00
2017-12-08T01:12:43.094Z,27.70
2017-12-08T01:15:10.649Z,37.27
2017-12-08T01:17:38.180Z,34.73
2017-12-08T01:20:05.738Z,34.70
2017-12-08T01:22:33.351Z,34.33
2017-12-08T01:25:00.893Z,46.90
2017-12-08T01:27:28.457Z,40.70
2017-12-08T01:29:55.983Z,39.80
2017-12-08T01:32:23.565Z,45.77
2017-12-08T01:34:51.084Z,25.87
2017-12-08T01:37:18.636Z,44.07
2017-12-08T01:39:46.156Z,27.37
2017-12-08T01:42:13.729Z,27.47
2017-12-08T01:44:42.017Z,36.10
2017-12-08T01:47:10.341Z,36.20
2017-12-08T01:49:37.889Z,37.00
2017-12-08T01:52:05.417Z,33.73
2017-12-08T01:54:32.983Z,44.30
2017-12-08T01:57:00.516Z,44.40
2017-12-08T01:59:28.092Z,39.83
2017-12-08T02:01:55.640Z,24.97
2017-12-08T02:04:23.200Z,38.43
2017-12-08T02:06:51.491Z,34.03
2017-12-08T02:09:19.231Z,45.67
2017-12-08T02:11:46.744Z,39.13
2017-12-08T02:14:15.038Z,31.50
2017-12-08T02:16:43.364Z,32.87
2017-12-08T02:22:01.557Z,32.33
2017-12-08T02:24:29.075Z,28.07
2017-12-08T02:26:57.404Z,36.30
2017-12-08T02:29:24.938Z,28.70
2017-12-08T02:31:53.253Z,22.30
2017-12-08T02:34:20.768Z,29.33
2017-12-08T02:36:48.318Z,21.13
2017-12-08T02:39:15.837Z,26.73
2017-12-08T02:41:43.432Z,35.60
2017-12-08T02:44:10.957Z,19.40
2017-12-08T02:46:38.475Z,27.00
2017-12-08T02:49:06.036Z,24.47
2017-12-08T02:51:33.572Z,22.57
2017-12-08T02:54:01.146Z,22.63
2017-12-08T02:56:28.701Z,33.53
2017-12-08T02:58:56.256Z,31.60
2017-12-08T03:01:23.776Z,22.60
2017-12-08T03:03:51.372Z,31.33
2017-12-08T03:06:19.671Z,22.03
2017-12-08T03:08:47.201Z,38.73
2017-12-08T03:11:14.760Z,35.77
2017-12-08T03:13:42.286Z,29.90
2017-12-08T03:16:10.623Z,23.80
2017-12-08T03:18:38.168Z,35.70
2017-12-08T03:21:05.720Z,28.00
2017-12-08T03:23:34.019Z,25.53
2017-12-08T03:26:01.733Z,27.90
2017-12-08T03:28:29.251Z,18.53
2017-12-08T03:30:57.835Z,22.23
2017-12-08T03:33:25.409Z,25.13
2017-12-08T03:35:52.928Z,25.17
2017-12-08T03:38:20.491Z,21.33
2017-12-08T03:40:48.007Z,29.53
2017-12-08T03:43:15.576Z,21.63
2017-12-08T03:45:43.156Z,27.13
2017-12-08T03:48:10.713Z,33.90
2017-12-08T03:50:38.234Z,26.43
2017-12-08T03:53:05.810Z,25.70
2017-12-08T03:55:33.329Z,36.30
2017-12-08T03:58:00.865Z,26.60
2017-12-08T04:00:28.418Z,30.40
2017-12-08T04:02:55.936Z,19.07
2017-12-08T04:05:23.488Z,19.07
2017-12-08T04:07:51.014Z,35.50
2017-12-08T04:10:18.571Z,29.77
2017-12-08T04:12:46.104Z,21.13
2017-12-08T04:15:13.949Z,23.40
2017-12-08T04:17:41.916Z,22.90
2017-12-08T04:20:09.441Z,16.63
2017-12-08T04:22:36.996Z,22.50
2017-12-08T04:25:04.519Z,24.83
2017-12-08T04:27:32.080Z,35.83
2017-12-08T04:29:59.602Z,12.57
2017-12-08T04:32:27.157Z,22.70
2017-12-08T04:34:54.707Z,27.87
2017-12-08T04:37:22.265Z,12.10
2017-12-08T04:39:49.777Z,27.70
2017-12-08T04:42:18.150Z,22.47
2017-12-08T04:44:45.676Z,27.10
2017-12-08T04:47:13.335Z,17.70
2017-12-08T04:49:40.997Z,16.70
2017-12-08T04:52:08.538Z,15.57
2017-12-08T04:54:36.127Z,15.53
2017-12-08T04:57:04.472Z,11.70
2017-12-08T04:59:32.038Z,18.33
2017-12-08T05:01:59.572Z,14.17
2017-12-08T05:04:27.892Z,13.27
2017-12-08T05:06:55.417Z,13.00
2017-12-08T05:09:22.945Z,14.80
2017-12-08T05:11:50.500Z,16.73
2017-12-08T05:14:18.026Z,19.47
2017-12-08T05:16:45.607Z,17.33
2017-12-08T05:19:13.124Z,15.20
2017-12-08T05:21:40.643Z,9.30
2017-12-08T05:24:08.199Z,17.27
2017-12-08T05:26:35.723Z,19.97
2017-12-08T05:29:03.292Z,14.20
2017-12-08T05:31:30.831Z,25.23
2017-12-08T05:33:58.595Z,17.23
2017-12-08T05:36:26.168Z,18.73
2017-12-08T05:38:53.704Z,13.73
2017-12-08T05:41:21.270Z,11.33
2017-12-08T05:43:48.795Z,24.47
2017-12-08T05:46:16.360Z,16.77
2017-12-08T05:48:43.874Z,12.03
2017-12-08T05:51:12.189Z,16.73
2017-12-08T05:53:39.707Z,18.00
2017-12-08T05:56:08.060Z,16.77
2017-12-08T05:58:35.580Z,18.40
2017-12-08T06:01:03.094Z,22.00
2017-12-08T06:03:30.670Z,13.93
2017-12-08T06:05:58.202Z,10.27
2017-12-08T06:08:26.528Z,19.27
2017-12-08T06:10:54.049Z,19.97
2017-12-08T06:13:21.631Z,16.83
2017-12-08T06:15:49.148Z,22.70
2017-12-08T06:18:16.776Z,26.73
2017-12-08T06:20:44.292Z,21.37
2017-12-08T06:23:11.855Z,24.87
2017-12-08T06:25:39.373Z,13.70
2017-12-08T06:28:06.915Z,14.03
2017-12-08T06:30:34.513Z,17.77
2017-12-08T06:33:02.028Z,31.60
2017-12-08T06:35:29.598Z,16.43
2017-12-08T06:37:57.880Z,17.23
2017-12-08T06:40:25.436Z,13.40
2017-12-08T06:42:53.092Z,18.53
2017-12-08T06:45:20.660Z,16.43
2017-12-08T06:47:48.174Z,20.67
2017-12-08T06:50:16.543Z,21.50
2017-12-08T06:52:44.060Z,20.27
2017-12-08T06:55:11.583Z,12.83
2017-12-08T06:57:39.853Z,10.33
2017-12-08T07:00:07.372Z,23.07
2017-12-08T07:02:34.932Z,21.50
2017-12-08T07:05:02.534Z,18.60
2017-12-08T07:07:30.122Z,17.70
2017-12-08T07:09:57.644Z,17.53
2017-12-08T07:12:25.206Z,20.90
2017-12-08T07:14:52.736Z,17.53
2017-12-08T07:17:20.255Z,12.83
2017-12-08T07:19:47.812Z,18.67
2017-12-08T07:22:15.328Z,13.57
2017-12-08T07:24:42.890Z,16.53
2017-12-08T07:27:11.184Z,12.60
2017-12-08T07:29:39.520Z,18.37
2017-12-08T07:32:07.050Z,29.37
2017-12-08T07:34:34.605Z,16.50
2017-12-08T07:37:02.941Z,16.63
2017-12-08T07:39:30.477Z,26.37
2017-12-08T07:41:58.811Z,24.97
2017-12-08T07:44:26.342Z,18.70
2017-12-08T07:46:54.665Z,21.80
2017-12-08T07:49:22.226Z,23.37
2017-12-08T07:51:49.792Z,27.17
2017-12-08T07:54:17.312Z,23.53
2017-12-08T07:56:44.918Z,12.70
2017-12-08T07:59:13.221Z,17.00
2017-12-08T08:01:40.789Z,17.13
2017-12-08T08:04:08.307Z,22.27
2017-12-08T08:06:35.892Z,16.83
2017-12-08T08:09:03.424Z,19.43
2017-12-08T08:11:30.971Z,14.77
2017-12-08T08:13:59.303Z,12.03
2017-12-08T08:16:26.821Z,14.53
2017-12-08T08:18:54.376Z,12.37
2017-12-08T08:21:21.937Z,16.43
2017-12-08T08:23:49.478Z,16.53
2017-12-08T08:26:17.008Z,21.53
2017-12-08T08:28:44.565Z,13.10
2017-12-08T08:31:12.092Z,10.93
2017-12-08T08:33:39.660Z,18.90
2017-12-08T08:36:07.185Z,14.60
2017-12-08T08:38:34.759Z,15.83
2017-12-08T08:41:02.273Z,11.20
2017-12-08T08:43:29.781Z,12.30
2017-12-08T08:45:57.340Z,10.73
2017-12-08T08:48:24.853Z,14.00
2017-12-08T08:50:53.189Z,14.00
2017-12-08T08:53:20.706Z,15.53
2017-12-08T08:55:48.254Z,13.13
2017-12-08T08:58:15.773Z,8.70
2017-12-08T09:00:43.356Z,11.73
2017-12-08T09:03:11.637Z,5.53
2017-12-08T09:05:39.926Z,24.37
2017-12-08T09:08:08.251Z,15.97
2017-12-08T09:10:35.828Z,15.33
2017-12-08T09:13:03.396Z,13.57
2017-12-08T09:15:30.909Z,25.53
2017-12-08T09:17:58.473Z,13.10
2017-12-08T09:20:25.992Z,10.47
2017-12-08T09:22:53.560Z,13.73
2017-12-08T09:25:21.858Z,16.60
2017-12-08T09:27:49.380Z,10.20
2017-12-08T09:30:16.929Z,20.23
2017-12-08T09:32:44.453Z,10.13
2017-12-08T09:35:12.786Z,11.60
2017-12-08T09:37:40.336Z,13.60
2017-12-08T09:40:08.218Z,14.70
2017-12-08T09:42:35.730Z,18.97
2017-12-08T09:45:03.277Z,10.20
2017-12-08T09:47:30.803Z,8.87
2017-12-08T09:49:59.150Z,11.20
2017-12-08T09:52:26.665Z,19.67
2017-12-08T09:54:54.180Z,17.50
2017-12-08T09:57:21.730Z,10.90
2017-12-08T09:59:50.009Z,10.77
2017-12-08T10:02:18.320Z,13.63
2017-12-08T10:04:45.842Z,10.20
2017-12-08T10:07:13.397Z,13.67
2017-12-08T10:09:40.918Z,14.03
2017-12-08T10:12:09.244Z,8.10
2017-12-08T10:14:36.766Z,20.80
2017-12-08T10:17:04.333Z,22.47
2017-12-08T10:19:31.857Z,10.07
2017-12-08T10:21:59.381Z,13.43
2017-12-08T10:24:26.941Z,23.23
2017-12-08T10:26:54.464Z,15.37
2017-12-08T10:29:22.025Z,6.70
2017-12-08T10:31:49.544Z,12.27
2017-12-08T10:34:17.100Z,18.70
2017-12-08T10:36:44.703Z,11.70
2017-12-08T10:39:12.321Z,12.83
2017-12-08T10:41:39.861Z,22.67
2017-12-08T10:44:08.193Z,13.70
2017-12-08T10:46:35.711Z,11.87
2017-12-08T10:49:03.341Z,15.17
2017-12-08T10:51:30.869Z,12.53
2017-12-08T10:53:58.395Z,24.77
2017-12-08T10:56:26.870Z,15.77
2017-12-08T10:58:54.408Z,17.93
2017-12-08T11:01:22.737Z,11.03
2017-12-08T11:03:50.268Z,15.60
2017-12-08T11:06:17.822Z,19.30
2017-12-08T11:08:45.351Z,7.90
2017-12-08T11:11:12.931Z,6.47
2017-12-08T11:13:40.477Z,14.83
2017-12-08T11:16:08.042Z,14.30
2017-12-08T11:18:36.328Z,14.57
2017-12-08T11:21:04.624Z,18.30
2017-12-08T11:23:32.956Z,13.33
2017-12-08T11:26:00.473Z,14.80
2017-12-08T11:28:28.024Z,15.33
2017-12-08T11:30:55.541Z,15.33
2017-12-08T11:33:23.096Z,9.63
2017-12-08T11:35:51.372Z,13.93
2017-12-08T11:38:18.938Z,14.27
2017-12-08T11:40:46.461Z,8.90
2017-12-08T11:43:14.012Z,12.27
2017-12-08T11:45:41.552Z,9.63
2017-12-08T11:48:09.174Z,11.63
2017-12-08T11:50:36.685Z,17.57
2017-12-08T11:53:04.200Z,7.43
2017-12-08T11:55:32.540Z,12.40
2017-12-08T11:58:00.060Z,9.67
2017-12-08T12:00:28.373Z,7.80
2017-12-08T12:02:55.887Z,7.57
2017-12-08T12:05:23.459Z,14.17
2017-12-08T12:07:51.008Z,7.50
2017-12-08T12:10:18.579Z,6.80
2017-12-08T12:12:46.692Z,17.53
2017-12-08T12:15:14.230Z,15.37
2017-12-08T12:17:41.843Z,7.43
2017-12-08T12:20:09.353Z,14.33
2017-12-08T12:22:36.916Z,9.63
2017-12-08T12:25:05.188Z,18.23
2017-12-08T12:27:32.749Z,9.23
2017-12-08T12:30:00.280Z,7.90
2017-12-08T12:32:29.384Z,7.77
2017-12-08T12:34:56.897Z,9.30
2017-12-08T12:37:24.435Z,9.67
2017-12-08T12:39:51.944Z,9.07
2017-12-08T12:42:19.595Z,15.37
2017-12-08T12:44:47.359Z,10.17
2017-12-08T12:47:14.921Z,9.37
2017-12-08T12:49:42.524Z,7.50
2017-12-08T12:52:10.148Z,12.73
2017-12-08T12:54:37.888Z,8.00
2017-12-08T12:57:06.224Z,4.83
2017-12-08T12:59:33.776Z,8.50
2017-12-08T13:02:02.141Z,9.87
2017-12-08T13:04:29.704Z,8.30
2017-12-08T13:06:57.247Z,15.63
2017-12-08T13:09:24.756Z,4.77
2017-12-08T13:11:52.344Z,10.50
2017-12-08T13:14:19.885Z,10.17
2017-12-08T13:16:47.439Z,5.30
2017-12-08T13:19:14.958Z,7.27
2017-12-08T13:21:42.572Z,17.63
2017-12-08T13:24:10.106Z,5.83
2017-12-08T13:26:37.657Z,7.90
2017-12-08T13:29:05.168Z,6.70
2017-12-08T13:31:33.594Z,5.37
2017-12-08T13:34:01.137Z,11.90
2017-12-08T13:36:28.672Z,7.10
2017-12-08T13:38:56.248Z,8.87
2017-12-08T13:41:23.811Z,10.33
2017-12-08T13:43:51.360Z,7.43
2017-12-08T13:46:18.867Z,7.80
2017-12-08T13:48:46.412Z,5.93
2017-12-08T13:51:13.932Z,13.60
2017-12-08T13:53:54.200Z,16.13
2017-12-08T13:56:33.371Z,6.97
2017-12-08T13:59:00.928Z,2.93
2017-12-08T14:01:29.206Z,1.50
2017-12-08T14:03:57.596Z,4.50
2017-12-08T14:06:25.880Z,5.00
2017-12-08T14:08:53.418Z,5.50
2017-12-08T14:11:21.000Z,5.10
2017-12-08T14:13:48.596Z,7.00
2017-12-08T14:16:16.145Z,9.73
2017-12-08T14:18:44.671Z,16.00
2017-12-08T14:21:13.000Z,9.77
2017-12-08T14:23:40.520Z,12.50
2017-12-08T14:26:08.072Z,18.17
2017-12-08T14:28:35.616Z,11.13
2017-12-08T14:31:03.192Z,9.93
2017-12-08T14:33:31.632Z,21.67
2017-12-08T14:35:59.227Z,12.47
2017-12-08T14:38:27.535Z,15.93
2017-12-08T14:40:55.105Z,14.33
2017-12-08T14:43:22.632Z,20.83
2017-12-08T14:45:50.198Z,16.23
2017-12-08T14:48:17.720Z,13.07
2017-12-08T14:50:45.335Z,10.33
2017-12-08T14:53:12.845Z,12.77
2017-12-08T14:55:41.135Z,11.27
2017-12-08T14:58:09.462Z,15.67
2017-12-08T15:00:36.981Z,7.90
2017-12-08T15:03:05.300Z,16.87
2017-12-08T15:05:32.820Z,13.50
2017-12-08T15:08:00.551Z,14.90
2017-12-08T15:10:28.104Z,20.87
2017-12-08T15:12:55.656Z,31.37
2017-12-08T15:15:23.178Z,26.80
2017-12-08T15:17:50.752Z,23.67
2017-12-08T15:20:18.317Z,33.30
2017-12-08T15:22:45.852Z,24.93
2017-12-08T15:25:13.404Z,24.87
2017-12-08T15:27:41.796Z,28.70
2017-12-08T15:30:09.344Z,27.70
2017-12-08T15:32:36.856Z,29.03
2017-12-08T15:35:04.417Z,26.43
2017-12-08T15:37:31.941Z,31.00
2017-12-08T15:39:59.511Z,26.87
2017-12-08T15:42:27.054Z,30.70
2017-12-08T15:44:55.384Z,28.37
2017-12-08T15:47:22.902Z,27.63
2017-12-08T15:49:50.421Z,31.63
2017-12-08T15:52:17.986Z,32.97
2017-12-08T15:54:46.249Z,28.07
2017-12-08T15:57:13.804Z,28.50
2017-12-08T15:59:41.318Z,33.83
2017-12-08T16:02:08.884Z,29.10
2017-12-08T16:04:37.501Z,43.10
2017-12-08T16:07:05.062Z,39.33
2017-12-08T16:09:32.585Z,29.47
2017-12-08T16:12:00.150Z,33.70
2017-12-08T16:14:27.674Z,12.03
2017-12-08T16:16:55.202Z,8.10
2017-12-08T16:19:23.769Z,7.90
2017-12-08T16:21:51.427Z,6.37
2017-12-08T16:24:19.185Z,9.67
2017-12-08T16:26:46.831Z,9.00
2017-12-08T16:29:15.176Z,9.97
2017-12-08T16:31:42.685Z,7.80
2017-12-08T16:34:10.300Z,15.80
2017-12-08T16:36:38.579Z,13.27
2017-12-08T16:39:06.854Z,9.80
2017-12-08T16:41:34.401Z,11.80
2017-12-08T16:44:01.920Z,19.23
2017-12-08T16:46:29.487Z,19.90
2017-12-08T16:48:57.119Z,7.13
2017-12-08T16:51:24.766Z,10.27
2017-12-08T16:53:52.284Z,10.37
2017-12-08T16:56:19.976Z,8.90
2017-12-08T16:58:48.282Z,7.73
2017-12-08T17:01:15.837Z,11.33
2017-12-08T17:03:44.127Z,7.60
2017-12-08T17:06:11.820Z,11.27
2017-12-08T17:08:39.349Z,11.33
2017-12-08T17:11:06.864Z,17.77
2017-12-08T17:13:34.413Z,12.47
2017-12-08T17:16:02.700Z,15.57
2017-12-08T17:18:30.252Z,15.33
2017-12-08T17:20:58.538Z,8.50
2017-12-08T17:23:26.096Z,13.20
2017-12-08T17:25:53.620Z,12.53
2017-12-08T17:28:21.198Z,8.63
2017-12-08T17:30:48.692Z,5.87
2017-12-08T17:33:16.270Z,17.97
2017-12-08T17:35:43.784Z,14.63
2017-12-08T17:38:12.085Z,6.93
2017-12-08T17:40:39.629Z,13.23
2017-12-08T17:43:07.136Z,8.00
2017-12-08T17:45:35.451Z,11.70
2017-12-08T17:48:02.973Z,10.10
2017-12-08T17:50:30.536Z,11.53
2017-12-08T17:52:58.049Z,13.67
2017-12-08T17:55:26.361Z,8.27
2017-12-08T17:57:53.877Z,12.13
2017-12-08T18:00:22.313Z,12.20
2017-12-08T18:02:49.828Z,9.20
2017-12-08T18:05:17.420Z,15.93
2017-12-08T18:07:44.941Z,21.63
2017-12-08T18:10:12.516Z,8.30
2017-12-08T18:12:40.053Z,14.73
2017-12-08T18:15:08.328Z,13.13
2017-12-08T18:17:35.881Z,17.93
2017-12-08T18:20:03.425Z,9.30
2017-12-08T18:22:31.021Z,18.83
2017-12-08T18:24:58.540Z,24.97
2017-12-08T18:27:26.117Z,10.23
2017-12-08T18:29:53.627Z,14.33
2017-12-08T18:32:21.172Z,12.23
2017-12-08T18:34:48.697Z,12.83
2017-12-08T18:37:16.309Z,10.83
2017-12-08T18:39:43.827Z,15.07
2017-12-08T18:42:11.396Z,8.20
2017-12-08T18:44:38.961Z,8.10
2017-12-08T18:47:06.472Z,17.77
2017-12-08T18:49:34.040Z,17.67
2017-12-08T18:52:01.611Z,13.27
2017-12-08T18:54:29.152Z,14.83
2017-12-08T18:56:56.682Z,8.70
2017-12-08T18:59:24.256Z,14.37
2017-12-08T19:01:52.546Z,12.10
2017-12-08T19:04:20.856Z,5.90
2017-12-08T19:06:48.429Z,9.93
2017-12-08T19:09:15.980Z,17.73
2017-12-08T19:11:43.518Z,17.20
2017-12-08T19:14:11.087Z,10.63
2017-12-08T19:16:38.680Z,14.50
2017-12-08T19:19:06.286Z,16.80
2017-12-08T19:21:34.763Z,16.57
2017-12-08T19:24:04.135Z,10.70
2017-12-08T19:26:31.774Z,9.37
2017-12-08T19:28:59.310Z,10.30
2017-12-08T19:31:36.798Z,18.07
2017-12-08T19:34:04.320Z,15.10
2017-12-08T19:36:32.634Z,8.73
2017-12-08T19:39:00.175Z,7.20
2017-12-08T19:41:28.499Z,5.70
2017-12-08T19:43:56.037Z,9.63
2017-12-08T19:46:24.376Z,9.77
2017-12-08T19:48:51.913Z,13.60
2017-12-08T19:51:19.581Z,10.23
2017-12-08T19:53:47.306Z,7.03
2017-12-08T19:56:15.645Z,13.57
2017-12-08T19:58:43.164Z,21.10
2017-12-08T20:01:10.864Z,5.13
2017-12-08T20:03:38.486Z,8.50
2017-12-08T20:06:07.022Z,6.10
2017-12-08T20:08:35.275Z,6.90
2017-12-08T20:11:02.860Z,10.30
2017-12-08T20:13:30.408Z,7.73
2017-12-08T20:15:58.119Z,5.80
2017-12-08T20:18:25.689Z,12.40
2017-12-08T20:20:53.233Z,18.47
2017-12-08T20:23:20.800Z,10.37
2017-12-08T20:25:48.416Z,9.90
2017-12-08T20:28:16.183Z,12.27
2017-12-08T20:30:43.807Z,6.70
2017-12-08T20:33:11.420Z,10.33
2017-12-08T20:35:39.022Z,8.50
2017-12-08T20:38:06.673Z,7.60
2017-12-08T20:40:34.976Z,9.80
2017-12-08T20:43:02.541Z,8.70
2017-12-08T20:45:30.171Z,5.90
2017-12-08T20:47:57.710Z,17.50
2017-12-08T20:50:25.277Z,12.33
2017-12-08T20:52:52.804Z,12.43
2017-12-08T20:55:20.365Z,6.80
2017-12-08T20:58:00.905Z,15.83
2017-12-08T21:00:28.468Z,15.43
2017-12-08T21:02:55.987Z,11.70
2017-12-08T21:05:23.553Z,8.33
2017-12-08T21:07:51.828Z,11.43
2017-12-08T21:10:23.162Z,11.50
2017-12-08T21:12:50.716Z,10.30
2017-12-08T21:15:19.100Z,12.80
2017-12-08T21:17:47.478Z,9.00
2017-12-08T21:20:15.669Z,7.13
2017-12-08T21:22:43.427Z,15.33
2017-12-08T21:25:10.965Z,6.03
2017-12-08T21:27:38.569Z,16.83
2017-12-08T21:30:06.861Z,10.33
2017-12-08T21:32:34.423Z,6.90
2017-12-08T21:35:02.707Z,10.40
2017-12-08T21:37:31.267Z,7.53
2017-12-08T21:39:58.778Z,6.97
2017-12-08T21:42:27.108Z,12.17
2017-12-08T21:44:54.677Z,7.47
2017-12-08T21:47:22.251Z,19.53
2017-12-08T21:49:49.756Z,6.10
2017-12-08T21:52:17.308Z,15.10
2017-12-08T21:54:44.893Z,18.17
2017-12-08T21:57:13.409Z,12.13
2017-12-08T21:59:40.991Z,10.67
2017-12-08T22:02:09.532Z,9.33
2017-12-08T22:04:37.112Z,8.63
2017-12-08T22:07:04.623Z,11.33
2017-12-08T22:09:32.197Z,14.83
2017-12-08T22:11:59.750Z,11.53
2017-12-08T22:14:27.384Z,13.03
2017-12-08T22:16:54.908Z,11.13
2017-12-08T22:19:22.482Z,8.57
2017-12-08T22:21:50.098Z,14.20
2017-12-08T22:24:17.659Z,7.30
2017-12-08T22:26:45.259Z,11.87
2017-12-08T22:29:12.796Z,12.07
2017-12-08T22:31:40.372Z,12.07
2017-12-08T22:34:07.965Z,10.00
2017-12-08T22:36:35.520Z,19.30
2017-12-08T22:39:03.816Z,10.90
2017-12-08T22:41:31.443Z,10.73
2017-12-08T22:43:58.982Z,12.70
2017-12-08T22:46:26.549Z,14.53
2017-12-08T22:48:54.419Z,8.13
2017-12-08T22:51:22.308Z,21.07
2017-12-08T22:53:49.885Z,13.53
2017-12-08T22:56:17.459Z,10.43
2017-12-08T22:58:45.068Z,15.87
2017-12-08T23:01:12.598Z,8.60
2017-12-08T23:03:40.161Z,17.70
2017-12-08T23:06:07.677Z,15.70
2017-12-08T23:08:35.248Z,9.43
2017-12-08T23:11:02.808Z,9.10
2017-12-08T23:13:30.368Z,14.30
2017-12-08T23:15:57.888Z,4.03
2017-12-08T23:18:25.449Z,13.20
2017-12-08T23:20:52.967Z,8.37
2017-12-08T23:23:20.529Z,9.93
2017-12-08T23:25:48.052Z,5.20
2017-12-08T23:28:15.617Z,12.37
2017-12-08T23:30:43.133Z,8.43
2017-12-08T23:33:11.415Z,8.23
2017-12-08T23:35:39.893Z,15.60
2017-12-08T23:38:07.563Z,11.00
2017-12-08T23:40:35.113Z,6.90
2017-12-08T23:43:02.634Z,6.10
2017-12-08T23:45:30.952Z,16.97
2017-12-08T23:47:58.464Z,17.13
2017-12-08T23:50:26.012Z,4.83
2017-12-08T23:52:53.524Z,24.83
2017-12-08T23:55:21.037Z,17.57
2017-12-08T23:57:48.586Z,7.63
